Time;durP1;ratioP1;P1;durP2;ratioP2;P2;SDS_P1;SDS_P2;PMS_P1;PMS_P2;Temp;Humidity;BMP_temperature;BMP_pressure;BME280_temperature;BME280_humidity;BME280_pressure;Samples;Min_cycle;Max_cycle;Signal;HPM_P1;HPM_P2
2023/12/02 00:00:35;;;;;;;6.82;4.97;;;;;;;;;;5060363;28;20977;-69
2023/12/02 00:03:05;;;;;;;7.40;5.03;;;;;;;;;;5058349;28;21482;-69
2023/12/02 00:05:34;;;;;;;5.82;4.70;;;;;;;;;;5061481;28;20423;-69
2023/12/02 00:08:01;;;;;;;6.43;5.15;;;;;;;;;;5062665;28;20431;-69
2023/12/02 00:10:29;;;;;;;7.30;5.63;;;;;;;;;;5067770;28;20429;-69
2023/12/02 00:12:56;;;;;;;7.40;5.13;;;;;;;;;;5054714;28;20435;-69
2023/12/02 00:15:23;;;;;;;5.77;4.60;;;;;;;;;;5053377;28;20436;-69
2023/12/02 00:17:51;;;;;;;8.02;5.28;;;;;;;;;;5062597;28;20436;-69
2023/12/02 00:20:18;;;;;;;7.03;4.88;;;;;;;;;;5059378;28;20442;-69
2023/12/02 00:22:45;;;;;;;5.03;4.07;;;;;;;;;;5058248;28;20442;-69
2023/12/02 00:25:15;;;;;;;5.47;4.68;;;;;;;;;;5069149;28;20484;-69
2023/12/02 00:27:42;;;;;;;5.78;4.43;;;;;;;;;;5063689;28;20505;-69
2023/12/02 00:30:10;;;;;;;7.93;5.13;;;;;;;;;;5054352;28;20836;-69
2023/12/02 00:32:37;;;;;;;5.82;4.65;;;;;;;;;;5051335;28;20788;-69
2023/12/02 00:35:04;;;;;;;6.43;5.18;;;;;;;;;;5044824;28;20433;-69
2023/12/02 00:37:35;;;;;;;5.95;4.70;;;;;;;;;;5037033;28;20442;-69
2023/12/02 00:40:02;;;;;;;7.32;5.03;;;;;;;;;;5056981;28;20453;-69
2023/12/02 00:42:29;;;;;;;7.07;4.40;;;;;;;;;;5043389;28;20435;-69
2023/12/02 00:44:56;;;;;;;6.57;4.70;;;;;;;;;;5070356;28;20455;-69
2023/12/02 00:47:23;;;;;;;6.55;5.20;;;;;;;;;;5050258;28;20451;-69
2023/12/02 00:49:51;;;;;;;6.45;5.07;;;;;;;;;;5039632;28;20509;-69
2023/12/02 00:52:18;;;;;;;6.43;5.20;;;;;;;;;;5024363;28;20429;-69
2023/12/02 00:54:45;;;;;;;5.68;4.32;;;;;;;;;;5060591;28;20507;-69
2023/12/02 00:57:12;;;;;;;7.07;4.47;;;;;;;;;;5045831;28;20452;-69
2023/12/02 00:59:39;;;;;;;7.55;4.97;;;;;;;;;;5065078;28;20456;-69
2023/12/02 01:02:07;;;;;;;7.22;5.05;;;;;;;;;;5044030;28;20974;-69
2023/12/02 01:04:34;;;;;;;6.22;4.63;;;;;;;;;;5043433;28;20814;-69
2023/12/02 01:07:01;;;;;;;7.40;4.97;;;;;;;;;;5039268;28;20481;-69
2023/12/02 01:09:28;;;;;;;6.97;4.72;;;;;;;;;;5042488;28;20435;-69
2023/12/02 01:11:58;;;;;;;5.30;4.38;;;;;;;;;;5070151;28;20505;-69
2023/12/02 01:14:26;;;;;;;6.90;4.77;;;;;;;;;;5063537;28;20427;-69
2023/12/02 01:16:58;;;;;;;6.38;5.10;;;;;;;;;;5054443;28;20432;-69
2023/12/02 01:19:25;;;;;;;6.15;4.72;;;;;;;;;;5044770;28;20430;-69
2023/12/02 01:21:58;;;;;;;7.00;4.60;;;;;;;;;;5062705;28;20560;-69
2023/12/02 01:24:28;;;;;;;6.10;4.18;;;;;;;;;;5054184;28;20518;-69
2023/12/02 01:26:55;;;;;;;6.55;4.03;;;;;;;;;;5048990;28;20441;-69
2023/12/02 01:29:22;;;;;;;4.90;4.10;;;;;;;;;;5051793;28;20516;-69
2023/12/02 01:31:52;;;;;;;5.30;3.90;;;;;;;;;;5050813;28;20473;-69
2023/12/02 01:34:20;;;;;;;5.05;4.10;;;;;;;;;;5057070;28;20438;-69
2023/12/02 01:36:47;;;;;;;6.00;4.17;;;;;;;;;;5036708;28;20520;-69
2023/12/02 01:39:14;;;;;;;5.50;4.00;;;;;;;;;;5040814;28;20443;-69
2023/12/02 01:41:41;;;;;;;4.40;3.70;;;;;;;;;;5062234;28;20434;-69
2023/12/02 01:44:12;;;;;;;4.57;3.65;;;;;;;;;;5060946;28;20510;-69
2023/12/02 01:46:47;;;;;;;5.13;3.97;;;;;;;;;;5052141;28;20427;-69
2023/12/02 01:49:15;;;;;;;5.60;4.15;;;;;;;;;;5061668;28;20937;-69
2023/12/02 01:51:42;;;;;;;5.68;4.40;;;;;;;;;;5062909;28;20783;-69
2023/12/02 01:54:09;;;;;;;5.97;4.15;;;;;;;;;;5049832;28;20515;-69
2023/12/02 01:56:37;;;;;;;4.15;3.75;;;;;;;;;;5044522;28;20435;-69
2023/12/02 01:59:04;;;;;;;5.47;4.10;;;;;;;;;;5050130;28;20432;-69
2023/12/02 02:01:31;;;;;;;6.35;4.47;;;;;;;;;;5043939;28;20431;-70
2023/12/02 02:03:59;;;;;;;4.88;4.05;;;;;;;;;;5048642;28;20998;-70
2023/12/02 02:06:27;;;;;;;4.75;3.95;;;;;;;;;;5063767;28;20431;-70
2023/12/02 02:08:55;;;;;;;4.87;4.07;;;;;;;;;;5056769;28;20435;-70
2023/12/02 02:11:22;;;;;;;5.38;3.78;;;;;;;;;;5060682;28;20767;-70
2023/12/02 02:13:49;;;;;;;4.20;3.78;;;;;;;;;;5064842;28;20462;-70
2023/12/02 02:16:16;;;;;;;4.82;3.67;;;;;;;;;;5058907;28;20455;-70
2023/12/02 02:18:46;;;;;;;4.03;3.33;;;;;;;;;;5068436;28;20455;-70
2023/12/02 02:21:16;;;;;;;4.60;3.70;;;;;;;;;;5045061;28;20755;-71
2023/12/02 02:23:47;;;;;;;4.70;3.80;;;;;;;;;;5052723;28;20776;-70
2023/12/02 02:26:14;;;;;;;4.95;3.70;;;;;;;;;;5060237;28;20449;-70
2023/12/02 02:28:41;;;;;;;5.13;3.60;;;;;;;;;;5059960;28;20877;-70
2023/12/02 02:31:08;;;;;;;5.30;4.07;;;;;;;;;;5043896;28;20437;-70
2023/12/02 02:33:36;;;;;;;4.13;3.50;;;;;;;;;;5052799;28;20493;-70
2023/12/02 02:36:03;;;;;;;3.55;3.22;;;;;;;;;;5049350;28;20448;-70
2023/12/02 02:38:30;;;;;;;3.97;3.58;;;;;;;;;;5042204;28;20769;-70
2023/12/02 02:40:57;;;;;;;4.75;3.50;;;;;;;;;;5059897;28;20477;-71
2023/12/02 02:43:27;;;;;;;4.30;3.60;;;;;;;;;;5057679;28;20436;-70
2023/12/02 02:45:55;;;;;;;3.88;3.25;;;;;;;;;;5054453;28;20512;-70
2023/12/02 02:48:22;;;;;;;3.67;3.25;;;;;;;;;;5057346;28;20424;-70
2023/12/02 02:50:49;;;;;;;4.67;3.53;;;;;;;;;;5045367;28;20429;-70
2023/12/02 02:53:16;;;;;;;4.00;3.45;;;;;;;;;;5048978;28;26118;-70
2023/12/02 02:55:43;;;;;;;4.53;3.58;;;;;;;;;;5051816;28;20493;-70
2023/12/02 02:58:11;;;;;;;3.93;3.53;;;;;;;;;;5068416;28;20506;-70
2023/12/02 03:00:38;;;;;;;4.38;3.55;;;;;;;;;;5056146;28;21122;-70
2023/12/02 03:03:05;;;;;;;4.78;3.55;;;;;;;;;;5059523;28;20427;-70
2023/12/02 03:05:32;;;;;;;4.35;3.40;;;;;;;;;;5052598;28;20497;-70
2023/12/02 03:08:00;;;;;;;5.13;3.80;;;;;;;;;;5061590;28;20942;-70
2023/12/02 03:10:27;;;;;;;4.53;3.63;;;;;;;;;;5048687;28;20499;-70
2023/12/02 03:12:54;;;;;;;4.25;3.60;;;;;;;;;;5047941;28;20838;-70
2023/12/02 03:15:23;;;;;;;3.60;3.30;;;;;;;;;;5051385;28;20439;-70
2023/12/02 03:17:51;;;;;;;5.40;3.72;;;;;;;;;;5051566;28;20465;-70
2023/12/02 03:20:18;;;;;;;4.63;3.55;;;;;;;;;;5060529;28;20443;-70
2023/12/02 03:22:46;;;;;;;3.60;3.20;;;;;;;;;;5042296;28;20920;-70
2023/12/02 03:25:13;;;;;;;4.00;3.45;;;;;;;;;;5066332;28;20916;-70
2023/12/02 03:27:41;;;;;;;4.25;3.40;;;;;;;;;;5051575;28;20461;-70
2023/12/02 03:30:08;;;;;;;4.22;3.50;;;;;;;;;;5033191;28;20431;-70
2023/12/02 03:32:41;;;;;;;4.07;3.30;;;;;;;;;;5057600;28;20915;-70
2023/12/02 03:35:09;;;;;;;3.47;3.17;;;;;;;;;;5054722;28;20435;-70
2023/12/02 03:37:39;;;;;;;4.60;3.72;;;;;;;;;;5035621;28;20438;-70
2023/12/02 03:40:08;;;;;;;4.00;3.60;;;;;;;;;;5056598;28;20429;-71
2023/12/02 03:42:35;;;;;;;5.72;3.60;;;;;;;;;;5056640;28;20435;-70
2023/12/02 03:45:08;;;;;;;4.40;3.70;;;;;;;;;;5059666;28;20991;-70
2023/12/02 03:47:35;;;;;;;3.90;3.50;;;;;;;;;;5070225;28;20458;-71
2023/12/02 03:50:03;;;;;;;4.45;3.50;;;;;;;;;;5065245;28;20429;-71
2023/12/02 03:52:30;;;;;;;3.80;3.25;;;;;;;;;;5053282;28;20787;-70
2023/12/02 03:54:57;;;;;;;4.30;3.70;;;;;;;;;;5060329;28;20438;-70
2023/12/02 03:57:24;;;;;;;9.43;4.13;;;;;;;;;;5053672;28;20483;-70
2023/12/02 03:59:52;;;;;;;4.43;3.60;;;;;;;;;;5057943;28;20428;-70
2023/12/02 04:02:19;;;;;;;3.58;3.20;;;;;;;;;;5061591;28;20464;-70
2023/12/02 04:04:48;;;;;;;4.05;3.55;;;;;;;;;;5047048;28;20425;-70
2023/12/02 04:07:15;;;;;;;3.60;3.30;;;;;;;;;;5050988;28;20453;-70
2023/12/02 04:09:43;;;;;;;4.55;3.42;;;;;;;;;;5054487;28;20423;-70
2023/12/02 04:12:10;;;;;;;4.17;3.30;;;;;;;;;;5063746;28;20428;-70
2023/12/02 04:14:41;;;;;;;4.32;3.60;;;;;;;;;;5042862;28;20564;-70
2023/12/02 04:17:08;;;;;;;3.87;3.47;;;;;;;;;;5065930;28;20484;-70
2023/12/02 04:19:35;;;;;;;3.75;3.33;;;;;;;;;;5060640;28;20444;-70
2023/12/02 04:22:06;;;;;;;4.65;3.30;;;;;;;;;;5052548;28;20433;-71
2023/12/02 04:24:36;;;;;;;3.58;3.17;;;;;;;;;;5051987;28;20511;-70
2023/12/02 04:27:03;;;;;;;3.23;2.97;;;;;;;;;;5026550;28;20483;-71
2023/12/02 04:29:40;;;;;;;3.45;3.10;;;;;;;;;;5049709;28;20583;-70
2023/12/02 04:32:08;;;;;;;3.33;3.03;;;;;;;;;;5032623;28;20425;-70
2023/12/02 04:34:38;;;;;;;4.20;3.80;;;;;;;;;;5053882;28;20468;-70
2023/12/02 04:37:05;;;;;;;3.42;3.13;;;;;;;;;;5052785;28;20462;-71
2023/12/02 04:39:33;;;;;;;3.25;2.95;;;;;;;;;;5056550;28;20434;-71
2023/12/02 04:42:00;;;;;;;2.95;2.75;;;;;;;;;;5056186;28;20794;-71
2023/12/02 04:44:28;;;;;;;3.00;2.80;;;;;;;;;;5055080;28;20456;-70
2023/12/02 04:46:55;;;;;;;2.45;2.25;;;;;;;;;;5057361;28;20475;-70
2023/12/02 04:49:22;;;;;;;2.50;2.30;;;;;;;;;;5057159;28;20475;-70
2023/12/02 04:51:49;;;;;;;3.03;2.23;;;;;;;;;;5047241;28;20474;-70
2023/12/02 04:54:19;;;;;;;2.60;2.40;;;;;;;;;;5053488;28;20433;-70
2023/12/02 04:56:46;;;;;;;2.47;2.28;;;;;;;;;;5052587;28;20431;-70
2023/12/02 04:59:16;;;;;;;3.25;2.65;;;;;;;;;;5050230;28;20468;-70
2023/12/02 05:01:46;;;;;;;2.80;2.60;;;;;;;;;;5061121;28;20840;-70
2023/12/02 05:04:13;;;;;;;3.90;3.30;;;;;;;;;;5047173;28;20809;-70
2023/12/02 05:06:44;;;;;;;3.97;3.10;;;;;;;;;;5044204;28;21099;-70
2023/12/02 05:09:12;;;;;;;3.63;3.20;;;;;;;;;;5049180;28;20435;-70
2023/12/02 05:11:39;;;;;;;3.60;3.30;;;;;;;;;;5057510;28;20788;-70
2023/12/02 05:14:07;;;;;;;3.88;3.50;;;;;;;;;;5057968;28;20433;-70
2023/12/02 05:16:34;;;;;;;4.00;3.58;;;;;;;;;;5051625;28;20450;-70
2023/12/02 05:19:01;;;;;;;4.13;3.50;;;;;;;;;;5069477;28;20439;-70
2023/12/02 05:21:28;;;;;;;4.00;3.60;;;;;;;;;;5052848;28;20959;-70
2023/12/02 05:23:56;;;;;;;4.47;4.00;;;;;;;;;;5064341;28;20503;-70
2023/12/02 05:26:23;;;;;;;4.10;3.70;;;;;;;;;;5049106;28;20432;-70
2023/12/02 05:28:51;;;;;;;4.18;3.40;;;;;;;;;;5052163;28;20893;-70
2023/12/02 05:31:19;;;;;;;4.10;3.70;;;;;;;;;;5061378;28;20838;-70
2023/12/02 05:33:46;;;;;;;3.28;2.97;;;;;;;;;;5034712;28;20432;-70
2023/12/02 05:36:16;;;;;;;3.90;3.33;;;;;;;;;;5042649;28;20435;-71
2023/12/02 05:38:43;;;;;;;4.45;3.50;;;;;;;;;;5067058;28;20446;-71
2023/12/02 05:41:10;;;;;;;3.53;3.00;;;;;;;;;;5062863;28;20436;-71
2023/12/02 05:43:40;;;;;;;2.92;2.70;;;;;;;;;;5057010;28;20431;-70
2023/12/02 05:46:07;;;;;;;2.40;2.30;;;;;;;;;;5053233;28;20423;-70
2023/12/02 05:48:34;;;;;;;2.65;2.45;;;;;;;;;;5058234;28;20425;-70
2023/12/02 05:51:03;;;;;;;2.75;2.55;;;;;;;;;;5057281;28;20429;-70
2023/12/02 05:53:31;;;;;;;2.80;2.60;;;;;;;;;;5056640;28;20439;-71
2023/12/02 05:55:59;;;;;;;2.70;2.40;;;;;;;;;;5056182;28;20430;-71
2023/12/02 05:58:26;;;;;;;2.80;2.60;;;;;;;;;;5068165;28;20443;-71
2023/12/02 06:00:56;;;;;;;2.73;2.50;;;;;;;;;;5046930;28;20487;-70
2023/12/02 06:03:26;;;;;;;2.95;2.75;;;;;;;;;;5049801;28;20459;-70
2023/12/02 06:05:53;;;;;;;2.85;2.65;;;;;;;;;;5040787;28;20434;-70
2023/12/02 06:08:21;;;;;;;4.45;3.10;;;;;;;;;;5036185;28;21079;-70
2023/12/02 06:10:48;;;;;;;2.92;2.72;;;;;;;;;;5038272;28;20516;-70
2023/12/02 06:13:15;;;;;;;3.30;3.00;;;;;;;;;;5068530;28;20485;-71
2023/12/02 06:15:42;;;;;;;2.83;2.63;;;;;;;;;;5068452;28;20506;-71
2023/12/02 06:18:11;;;;;;;3.15;2.80;;;;;;;;;;5061629;28;20443;-70
2023/12/02 06:20:41;;;;;;;3.75;3.35;;;;;;;;;;5052877;28;20514;-70
2023/12/02 06:23:11;;;;;;;3.78;3.40;;;;;;;;;;5062624;28;20518;-71
2023/12/02 06:25:38;;;;;;;3.65;3.35;;;;;;;;;;5050417;28;20469;-70
2023/12/02 06:28:06;;;;;;;3.15;2.88;;;;;;;;;;5055003;28;20508;-70
2023/12/02 06:30:33;;;;;;;3.88;3.45;;;;;;;;;;5052126;28;20427;-70
2023/12/02 06:33:00;;;;;;;3.47;3.17;;;;;;;;;;5062228;28;20457;-70
2023/12/02 06:35:28;;;;;;;3.38;2.92;;;;;;;;;;5059418;28;20913;-71
2023/12/02 06:37:55;;;;;;;3.80;3.47;;;;;;;;;;5044847;28;20510;-70
2023/12/02 06:40:25;;;;;;;3.83;3.40;;;;;;;;;;5068701;28;20431;-70
2023/12/02 06:42:53;;;;;;;3.47;3.17;;;;;;;;;;5050644;28;20423;-70
2023/12/02 06:45:20;;;;;;;4.03;3.63;;;;;;;;;;5045532;28;20431;-70
2023/12/02 06:47:47;;;;;;;3.65;3.35;;;;;;;;;;5034002;28;20433;-70
2023/12/02 06:50:14;;;;;;;3.67;3.38;;;;;;;;;;5046594;28;20425;-70
2023/12/02 06:52:42;;;;;;;4.32;3.30;;;;;;;;;;5070628;28;20542;-70
2023/12/02 06:55:09;;;;;;;4.20;3.65;;;;;;;;;;5047877;28;20438;-71
2023/12/02 06:57:40;;;;;;;3.28;2.97;;;;;;;;;;5033019;28;20433;-70
2023/12/02 07:00:11;;;;;;;3.40;3.10;;;;;;;;;;5060141;28;20505;-70
2023/12/02 07:02:41;;;;;;;3.20;2.97;;;;;;;;;;5044179;28;20848;-69
2023/12/02 07:05:11;;;;;;;3.00;2.70;;;;;;;;;;5046107;28;20429;-69
2023/12/02 07:07:38;;;;;;;3.08;2.85;;;;;;;;;;5041560;28;20485;-70
2023/12/02 07:10:05;;;;;;;3.30;3.00;;;;;;;;;;5025631;28;20512;-70
2023/12/02 07:12:32;;;;;;;3.35;2.97;;;;;;;;;;5042041;28;20438;-69
2023/12/02 07:14:59;;;;;;;3.30;2.97;;;;;;;;;;5044714;28;20503;-70
2023/12/02 07:17:27;;;;;;;4.75;3.22;;;;;;;;;;5041732;28;20517;-70
2023/12/02 07:19:54;;;;;;;3.35;2.85;;;;;;;;;;5018394;28;20423;-70
2023/12/02 07:22:21;;;;;;;3.77;3.37;;;;;;;;;;5042886;28;20536;-69
2023/12/02 07:24:48;;;;;;;3.15;2.85;;;;;;;;;;5043049;28;20470;-70
2023/12/02 07:27:16;;;;;;;3.40;3.10;;;;;;;;;;5052326;28;20431;-69
2023/12/02 07:29:43;;;;;;;3.13;2.80;;;;;;;;;;5058476;28;20432;-70
2023/12/02 07:32:15;;;;;;;3.15;2.95;;;;;;;;;;5041908;28;20842;-69
2023/12/02 07:34:42;;;;;;;3.23;2.93;;;;;;;;;;5025502;28;20469;-69
2023/12/02 07:37:10;;;;;;;3.22;2.92;;;;;;;;;;5033769;28;20506;-69
2023/12/02 07:39:37;;;;;;;2.60;2.40;;;;;;;;;;5048546;28;20437;-70
2023/12/02 07:42:04;;;;;;;3.20;2.90;;;;;;;;;;5060667;28;20911;-70
2023/12/02 07:44:32;;;;;;;3.00;2.80;;;;;;;;;;5052442;28;20513;-73
2023/12/02 07:46:59;;;;;;;3.45;3.00;;;;;;;;;;5051749;28;20462;-69
2023/12/02 07:49:27;;;;;;;3.20;2.90;;;;;;;;;;5064316;28;21012;-70
2023/12/02 07:51:56;;;;;;;3.42;3.13;;;;;;;;;;5055265;28;20515;-70
2023/12/02 07:54:23;;;;;;;3.50;3.20;;;;;;;;;;5025388;28;20442;-70
2023/12/02 07:56:51;;;;;;;3.40;3.10;;;;;;;;;;5041665;28;20440;-69
2023/12/02 07:59:18;;;;;;;4.03;3.47;;;;;;;;;;5049107;28;20440;-70
2023/12/02 08:01:45;;;;;;;3.58;3.08;;;;;;;;;;5035752;28;20500;-70
2023/12/02 08:04:12;;;;;;;3.45;3.15;;;;;;;;;;5040524;28;20516;-70
2023/12/02 08:06:40;;;;;;;3.30;2.80;;;;;;;;;;5033502;28;20431;-70
2023/12/02 08:09:07;;;;;;;3.42;3.08;;;;;;;;;;5028583;28;20451;-70
2023/12/02 08:11:34;;;;;;;3.58;3.28;;;;;;;;;;5042440;28;20919;-70
2023/12/02 08:14:01;;;;;;;2.92;2.70;;;;;;;;;;5043137;28;21086;-70
2023/12/02 08:16:31;;;;;;;3.50;3.20;;;;;;;;;;5043659;28;20487;-70
2023/12/02 08:19:04;;;;;;;3.80;3.40;;;;;;;;;;5042730;28;20429;-69
2023/12/02 08:21:31;;;;;;;2.53;2.35;;;;;;;;;;5040864;28;20429;-70
2023/12/02 08:24:02;;;;;;;3.75;2.90;;;;;;;;;;5042400;28;20437;-70
2023/12/02 08:26:36;;;;;;;3.38;3.08;;;;;;;;;;5059128;28;20429;-70
2023/12/02 08:29:03;;;;;;;3.22;2.92;;;;;;;;;;5055073;28;20434;-70
2023/12/02 08:31:36;;;;;;;3.03;2.83;;;;;;;;;;5046186;28;20438;-69
2023/12/02 08:34:04;;;;;;;3.40;3.00;;;;;;;;;;5042590;28;20460;-69
2023/12/02 08:36:41;;;;;;;3.03;2.83;;;;;;;;;;5046960;28;20429;-69
2023/12/02 08:39:09;;;;;;;3.88;3.40;;;;;;;;;;5064521;28;20424;-69
2023/12/02 08:41:36;;;;;;;3.77;3.23;;;;;;;;;;5030063;28;20485;-70
2023/12/02 08:44:04;;;;;;;3.25;2.97;;;;;;;;;;5044855;28;20428;-69
2023/12/02 08:46:31;;;;;;;3.75;3.35;;;;;;;;;;5049605;28;20495;-69
2023/12/02 08:48:58;;;;;;;3.45;3.15;;;;;;;;;;5044867;28;20537;-69
2023/12/02 08:51:26;;;;;;;3.33;3.03;;;;;;;;;;5041320;28;20943;-69
2023/12/02 08:54:00;;;;;;;3.00;2.78;;;;;;;;;;5049331;28;20427;-69
2023/12/02 08:56:30;;;;;;;3.20;2.90;;;;;;;;;;5041921;28;20437;-69
2023/12/02 08:58:57;;;;;;;3.10;2.80;;;;;;;;;;5051828;28;20439;-69
2023/12/02 09:01:24;;;;;;;2.80;2.60;;;;;;;;;;5059119;28;20429;-69
2023/12/02 09:03:51;;;;;;;3.03;2.83;;;;;;;;;;5046034;28;20516;-70
2023/12/02 09:06:19;;;;;;;3.60;3.30;;;;;;;;;;5040497;28;20826;-69
2023/12/02 09:08:48;;;;;;;2.95;2.75;;;;;;;;;;5055482;28;20483;-69
2023/12/02 09:11:16;;;;;;;3.25;2.83;;;;;;;;;;5045290;28;20424;-69
2023/12/02 09:13:46;;;;;;;3.50;3.20;;;;;;;;;;5034199;28;20423;-69
2023/12/02 09:16:19;;;;;;;3.20;2.90;;;;;;;;;;5043401;28;20964;-69
2023/12/02 09:18:47;;;;;;;3.90;2.95;;;;;;;;;;5041082;28;20485;-69
2023/12/02 09:21:33;;;;;;;3.25;2.95;;;;;;;;;;5054798;28;20518;-69
2023/12/02 09:24:05;;;;;;;3.55;2.97;;;;;;;;;;5057250;28;20439;-69
2023/12/02 09:26:34;;;;;;;3.13;2.80;;;;;;;;;;5033673;28;20450;-69
2023/12/02 09:29:04;;;;;;;3.40;3.10;;;;;;;;;;5043387;28;20437;-69
2023/12/02 09:31:32;;;;;;;3.38;3.08;;;;;;;;;;5037532;28;20761;-69
2023/12/02 09:34:02;;;;;;;3.63;3.20;;;;;;;;;;5039548;28;20907;-69
2023/12/02 09:36:36;;;;;;;3.85;3.25;;;;;;;;;;5035315;28;20537;-69
2023/12/02 09:39:09;;;;;;;4.15;3.75;;;;;;;;;;5033451;28;20431;-69
2023/12/02 09:41:46;;;;;;;3.97;3.57;;;;;;;;;;5031017;28;20454;-69
2023/12/02 09:44:33;;;;;;;3.55;3.20;;;;;;;;;;5032314;28;20518;-69
2023/12/02 09:47:04;;;;;;;4.13;3.67;;;;;;;;;;5047508;28;20873;-69
2023/12/02 09:49:50;;;;;;;3.50;2.95;;;;;;;;;;5048299;28;20761;-69
2023/12/02 09:52:44;;;;;;;3.08;2.88;;;;;;;;;;5049022;28;20786;-68
2023/12/02 09:55:14;;;;;;;3.20;2.90;;;;;;;;;;5040594;28;20982;-69
2023/12/02 09:58:07;;;;;;;3.13;2.80;;;;;;;;;;5039398;28;20522;-69
2023/12/02 10:00:50;;;;;;;3.20;2.90;;;;;;;;;;5017797;28;20429;-70
2023/12/02 10:03:34;;;;;;;3.10;2.90;;;;;;;;;;5045242;28;20510;-69
2023/12/02 10:06:11;;;;;;;3.00;2.70;;;;;;;;;;5041768;28;20443;-70
2023/12/02 10:09:09;;;;;;;3.15;2.85;;;;;;;;;;5048395;28;20487;-69
2023/12/02 10:11:47;;;;;;;3.30;2.80;;;;;;;;;;4972231;28;20968;-69
2023/12/02 10:14:17;;;;;;;2.75;2.55;;;;;;;;;;5045127;28;20531;-69
2023/12/02 10:16:50;;;;;;;3.00;2.70;;;;;;;;;;5047803;28;20537;-69
2023/12/02 10:19:36;;;;;;;3.33;3.03;;;;;;;;;;5044550;28;20555;-69
2023/12/02 10:22:05;;;;;;;3.38;3.08;;;;;;;;;;5045577;28;20437;-69
2023/12/02 10:24:40;;;;;;;3.63;3.22;;;;;;;;;;5029170;28;20429;-69
2023/12/02 10:27:10;;;;;;;3.43;2.77;;;;;;;;;;5043528;28;20952;-69
2023/12/02 10:29:57;;;;;;;3.55;3.22;;;;;;;;;;5056295;28;20874;-69
2023/12/02 10:32:36;;;;;;;3.38;3.08;;;;;;;;;;5053947;28;20428;-69
2023/12/02 10:35:21;;;;;;;3.08;2.88;;;;;;;;;;5045229;28;20449;-69
2023/12/02 10:37:53;;;;;;;3.60;3.30;;;;;;;;;;5044965;28;20432;-69
2023/12/02 10:40:23;;;;;;;3.40;3.10;;;;;;;;;;5043406;28;20439;-69
2023/12/02 10:43:03;;;;;;;3.55;3.00;;;;;;;;;;5040539;28;20930;-69
2023/12/02 10:45:32;;;;;;;2.50;2.30;;;;;;;;;;5039405;28;20437;-69
2023/12/02 10:47:59;;;;;;;3.85;3.45;;;;;;;;;;5017291;28;20438;-69
2023/12/02 10:50:27;;;;;;;3.40;3.10;;;;;;;;;;5051702;28;20904;-69
2023/12/02 10:53:10;;;;;;;3.55;2.92;;;;;;;;;;5037183;28;20437;-69
2023/12/02 10:55:37;;;;;;;11.43;6.40;;;;;;;;;;5024275;28;20994;-69
2023/12/02 10:58:11;;;;;;;5.57;3.97;;;;;;;;;;5041413;28;20921;-69
2023/12/02 11:00:39;;;;;;;18.23;11.13;;;;;;;;;;5034975;28;20468;-69
2023/12/02 11:03:10;;;;;;;3.58;3.28;;;;;;;;;;5037915;28;20495;-70
2023/12/02 11:05:44;;;;;;;3.50;3.20;;;;;;;;;;5044387;28;21116;-69
2023/12/02 11:08:25;;;;;;;3.28;2.95;;;;;;;;;;5043138;28;20425;-69
2023/12/02 11:10:56;;;;;;;3.45;3.15;;;;;;;;;;5030804;28;20514;-69
2023/12/02 11:13:24;;;;;;;3.33;3.05;;;;;;;;;;5038382;28;20423;-70
2023/12/02 11:16:06;;;;;;;4.70;3.60;;;;;;;;;;5041267;28;20441;-70
2023/12/02 11:18:59;;;;;;;2.78;2.58;;;;;;;;;;5046176;28;20451;-69
2023/12/02 11:21:45;;;;;;;2.75;2.55;;;;;;;;;;5033807;28;20448;-70
2023/12/02 11:24:25;;;;;;;3.55;3.25;;;;;;;;;;5028457;28;20440;-69
2023/12/02 11:27:07;;;;;;;2.83;2.60;;;;;;;;;;5039912;28;20939;-69
2023/12/02 11:29:48;;;;;;;2.60;2.40;;;;;;;;;;5032518;28;20791;-69
2023/12/02 11:32:22;;;;;;;2.72;2.53;;;;;;;;;;5042095;28;20429;-69
2023/12/02 11:34:55;;;;;;;2.83;2.63;;;;;;;;;;5048761;28;20461;-69
2023/12/02 11:37:34;;;;;;;3.25;2.95;;;;;;;;;;5044238;28;20891;-69
2023/12/02 11:40:01;;;;;;;3.13;2.92;;;;;;;;;;5048241;28;20514;-69
2023/12/02 11:42:34;;;;;;;2.70;2.50;;;;;;;;;;5049521;28;20443;-69
2023/12/02 11:45:05;;;;;;;2.67;2.53;;;;;;;;;;5028952;28;20459;-70
2023/12/02 11:47:50;;;;;;;2.88;2.67;;;;;;;;;;5052047;28;20453;-70
2023/12/02 11:50:33;;;;;;;2.40;2.22;;;;;;;;;;5048191;28;20427;-69
2023/12/02 11:53:09;;;;;;;2.50;2.30;;;;;;;;;;5016372;28;20868;-69
2023/12/02 11:55:43;;;;;;;3.05;2.10;;;;;;;;;;5035541;28;20449;-69
2023/12/02 11:58:25;;;;;;;2.97;2.70;;;;;;;;;;5041803;28;20908;-70
2023/12/02 12:01:13;;;;;;;2.63;2.42;;;;;;;;;;5043350;28;20506;-69
2023/12/02 12:03:59;;;;;;;2.92;2.60;;;;;;;;;;5039566;28;20552;-70
2023/12/02 12:06:37;;;;;;;3.10;2.90;;;;;;;;;;5025244;28;20487;-70
2023/12/02 12:09:22;;;;;;;3.40;3.10;;;;;;;;;;5047197;28;20961;-69
2023/12/02 12:11:51;;;;;;;3.53;2.88;;;;;;;;;;5040691;28;20430;-69
2023/12/02 12:14:20;;;;;;;3.38;2.90;;;;;;;;;;5037121;28;20425;-70
2023/12/02 12:16:49;;;;;;;3.38;3.10;;;;;;;;;;5045936;28;20950;-70
2023/12/02 12:19:17;;;;;;;3.45;3.15;;;;;;;;;;5047949;28;20494;-70
2023/12/02 12:21:46;;;;;;;3.58;3.10;;;;;;;;;;5051117;28;20435;-69
2023/12/02 12:24:15;;;;;;;4.13;3.47;;;;;;;;;;5049231;28;20433;-69
2023/12/02 12:26:42;;;;;;;4.78;3.92;;;;;;;;;;5018304;28;20518;-69
2023/12/02 12:29:09;;;;;;;5.17;4.40;;;;;;;;;;5032219;28;20426;-69
2023/12/02 12:31:37;;;;;;;6.47;4.80;;;;;;;;;;5048080;28;20437;-69
2023/12/02 12:34:11;;;;;;;5.15;4.10;;;;;;;;;;5028358;28;20429;-69
2023/12/02 12:36:39;;;;;;;5.30;4.47;;;;;;;;;;5045050;28;20461;-69
2023/12/02 12:39:07;;;;;;;5.32;4.30;;;;;;;;;;5042187;28;20443;-69
2023/12/02 12:41:38;;;;;;;4.93;4.22;;;;;;;;;;5035676;28;20435;-70
2023/12/02 12:44:06;;;;;;;4.97;4.00;;;;;;;;;;5033080;28;20442;-69
2023/12/02 12:46:34;;;;;;;4.75;4.25;;;;;;;;;;5046294;28;20983;-69
2023/12/02 12:49:07;;;;;;;5.25;4.00;;;;;;;;;;5038302;28;20460;-69
2023/12/02 12:51:36;;;;;;;5.20;4.18;;;;;;;;;;5043541;28;20483;-69
2023/12/02 12:54:05;;;;;;;6.93;4.60;;;;;;;;;;5039438;28;20468;-69
2023/12/02 12:56:42;;;;;;;6.00;4.47;;;;;;;;;;5041341;28;20467;-69
2023/12/02 12:59:15;;;;;;;4.75;4.00;;;;;;;;;;5035983;28;20442;-69
2023/12/02 13:01:54;;;;;;;4.78;4.07;;;;;;;;;;5036463;28;20429;-70
2023/12/02 13:04:24;;;;;;;5.93;4.10;;;;;;;;;;5046615;28;20425;-70
2023/12/02 13:06:57;;;;;;;24.60;9.57;;;;;;;;;;5049222;28;20431;-69
2023/12/02 13:09:28;;;;;;;6.13;4.13;;;;;;;;;;5031763;28;20436;-69
2023/12/02 13:11:59;;;;;;;6.20;5.10;;;;;;;;;;5039555;28;20835;-70
2023/12/02 13:14:31;;;;;;;4.65;4.10;;;;;;;;;;5041786;28;20439;-70
2023/12/02 13:17:00;;;;;;;5.60;4.32;;;;;;;;;;5053305;28;20435;-69
2023/12/02 13:19:29;;;;;;;5.03;3.80;;;;;;;;;;5040381;28;20859;-69
2023/12/02 13:21:58;;;;;;;5.65;3.65;;;;;;;;;;5047441;28;20880;-69
2023/12/02 13:24:26;;;;;;;4.18;3.78;;;;;;;;;;5051190;28;20519;-69
2023/12/02 13:26:53;;;;;;;6.53;4.10;;;;;;;;;;5031928;28;20464;-70
2023/12/02 13:29:26;;;;;;;5.25;4.40;;;;;;;;;;5040983;28;20449;-69
2023/12/02 13:31:54;;;;;;;6.00;4.85;;;;;;;;;;5041016;28;20536;-69
2023/12/02 13:34:21;;;;;;;4.47;3.75;;;;;;;;;;5038051;28;20949;-69
2023/12/02 13:36:50;;;;;;;4.10;3.70;;;;;;;;;;5040640;28;20473;-70
2023/12/02 13:39:25;;;;;;;4.13;3.60;;;;;;;;;;5043263;28;20516;-69
2023/12/02 13:41:55;;;;;;;5.65;4.55;;;;;;;;;;5037569;28;20485;-69
2023/12/02 13:44:23;;;;;;;4.45;4.05;;;;;;;;;;5040537;28;20574;-69
2023/12/02 13:46:50;;;;;;;7.45;4.68;;;;;;;;;;5039686;28;20991;-69
2023/12/02 13:49:24;;;;;;;6.77;4.43;;;;;;;;;;5035992;28;20518;-69
2023/12/02 13:52:05;;;;;;;5.10;4.40;;;;;;;;;;5044741;28;20447;-69
2023/12/02 13:54:38;;;;;;;5.13;4.10;;;;;;;;;;5037089;28;20477;-69
2023/12/02 13:57:08;;;;;;;5.80;4.78;;;;;;;;;;5043831;28;20486;-69
2023/12/02 13:59:35;;;;;;;4.80;3.75;;;;;;;;;;5037806;28;20437;-70
2023/12/02 14:02:27;;;;;;;4.50;4.10;;;;;;;;;;5040864;28;20433;-69
2023/12/02 14:05:00;;;;;;;5.78;4.05;;;;;;;;;;5045776;28;20459;-69
2023/12/02 14:07:29;;;;;;;5.68;5.13;;;;;;;;;;5053191;28;20550;-69
2023/12/02 14:09:59;;;;;;;5.30;3.90;;;;;;;;;;5043183;28;20450;-69
2023/12/02 14:12:46;;;;;;;5.85;4.15;;;;;;;;;;5046065;28;20946;-69
2023/12/02 14:15:32;;;;;;;5.97;4.15;;;;;;;;;;5044803;28;20431;-69
2023/12/02 14:17:59;;;;;;;7.13;4.53;;;;;;;;;;5047705;28;20437;-69
2023/12/02 14:20:27;;;;;;;5.47;4.55;;;;;;;;;;5041915;28;20436;-69
2023/12/02 14:23:15;;;;;;;5.05;4.07;;;;;;;;;;5035038;28;20963;-69
2023/12/02 14:25:45;;;;;;;5.03;4.05;;;;;;;;;;5041041;28;20495;-70
2023/12/02 14:28:25;;;;;;;7.03;4.80;;;;;;;;;;5043038;28;20450;-69
2023/12/02 14:30:55;;;;;;;5.55;4.35;;;;;;;;;;5038019;28;20564;-69
2023/12/02 14:33:35;;;;;;;6.10;4.55;;;;;;;;;;5044622;28;20433;-69
2023/12/02 14:36:18;;;;;;;16.00;9.52;;;;;;;;;;5047351;28;20471;-69
2023/12/02 14:38:57;;;;;;;12.52;7.93;;;;;;;;;;5051461;28;20790;-70
2023/12/02 14:41:33;;;;;;;13.93;7.80;;;;;;;;;;5045935;28;20512;-70
2023/12/02 14:44:06;;;;;;;7.18;5.70;;;;;;;;;;5027385;28;20461;-69
2023/12/02 14:46:34;;;;;;;4.82;4.32;;;;;;;;;;5044605;28;20785;-69
2023/12/02 14:49:04;;;;;;;5.35;4.32;;;;;;;;;;5034684;28;20425;-69
2023/12/02 14:51:34;;;;;;;6.45;4.80;;;;;;;;;;5052528;28;20435;-69
2023/12/02 14:54:03;;;;;;;5.10;4.60;;;;;;;;;;5043015;28;20433;-69
2023/12/02 14:56:31;;;;;;;6.72;3.97;;;;;;;;;;5045393;28;20433;-69
2023/12/02 14:59:03;;;;;;;5.75;4.20;;;;;;;;;;5031953;28;20431;-69
2023/12/02 15:01:40;;;;;;;5.28;4.40;;;;;;;;;;5035642;28;20423;-70